Time,TemperatureF,DewpointF,PressureIn,WindDirection,WindDirectionDegrees,WindSpeedMPH,WindSpeedGustMPH,Humidity,HourlyPrecipIn,Conditions,Clouds,dailyrainin,SoftwareType,DateUTC
2013-07-14 00:01:00,69.7,67.0,30.28,East,80,0.0,0.0,91,0.00,,,0.00,Wunderground v.1.15,2013-07-14 04:01:00,
2013-07-14 00:02:00,69.7,67.0,30.28,East,80,0.0,0.0,91,0.00,,,0.00,Wunderground v.1.15,2013-07-14 04:02:00,
2013-07-14 00:04:00,69.7,67.0,30.28,East,80,0.0,0.0,91,0.00,,,0.00,Wunderground v.1.15,2013-07-14 04:04:00,
2013-07-14 00:05:00,69.7,67.0,30.29,East,80,0.0,0.0,91,0.00,,,0.00,Wunderground v.1.15,2013-07-14 04:05:00,
2013-07-14 00:06:00,69.7,67.0,30.29,East,80,0.0,0.0,91,0.00,,,0.00,Wunderground v.1.15,2013-07-14 04:06:00,
2013-07-14 00:12:00,69.6,66.9,30.29,East,80,0.0,0.0,91,0.00,,,0.00,Wunderground v.1.15,2013-07-14 04:12:00,
2013-07-14 00:18:00,69.5,66.8,30.29,East,80,0.0,0.0,91,0.00,,,0.00,Wunderground v.1.15,2013-07-14 04:18:00,
2013-07-14 00:24:00,69.4,66.7,30.29,East,80,0.0,0.0,91,0.00,,,0.00,Wunderground v.1.15,2013-07-14 04:24:00,
2013-07-14 00:30:00,69.3,66.9,30.29,East,80,0.0,0.0,92,0.00,,,0.00,Wunderground v.1.15,2013-07-14 04:30:00,
2013-07-14 00:35:00,69.2,66.8,30.29,East,80,0.0,0.0,92,0.00,,,0.00,Wunderground v.1.15,2013-07-14 04:35:00,
2013-07-14 00:41:00,69.1,66.7,30.29,East,80,0.0,0.0,92,0.00,,,0.00,Wunderground v.1.15,2013-07-14 04:41:00,
2013-07-14 00:47:00,69.1,66.7,30.29,East,89,0.0,0.0,92,0.00,,,0.00,Wunderground v.1.15,2013-07-14 04:47:00,
2013-07-14 00:53:00,69.0,66.6,30.29,East,89,0.0,0.0,92,0.00,,,0.00,Wunderground v.1.15,2013-07-14 04:53:00,
2013-07-14 00:59:00,69.0,66.6,30.29,East,89,0.0,0.0,92,0.00,,,0.00,Wunderground v.1.15,2013-07-14 04:59:00,
2013-07-14 01:04:00,68.9,66.5,30.29,East,89,0.0,1.0,92,0.00,,,0.00,Wunderground v.1.15,2013-07-14 05:04:00,
2013-07-14 01:10:00,68.8,66.4,30.29,East,89,0.0,1.0,92,0.00,,,0.00,Wunderground v.1.15,2013-07-14 05:10:00,
2013-07-14 01:16:00,68.8,66.7,30.28,East,89,0.0,1.0,93,0.00,,,0.00,Wunderground v.1.15,2013-07-14 05:16:00,
2013-07-14 01:22:00,68.7,66.6,30.29,East,89,0.0,1.0,93,0.00,,,0.00,Wunderground v.1.15,2013-07-14 05:22:00,
2013-07-14 01:28:00,68.6,66.5,30.29,East,89,0.0,1.0,93,0.00,,,0.00,Wunderground v.1.15,2013-07-14 05:28:00,
2013-07-14 01:34:00,68.5,66.4,30.29,East,89,0.0,1.0,93,0.00,,,0.00,Wunderground v.1.15,2013-07-14 05:34:00,
2013-07-14 01:40:00,68.4,66.3,30.28,East,89,0.0,1.0,93,0.00,,,0.00,Wunderground v.1.15,2013-07-14 05:40:00,
2013-07-14 01:45:00,68.4,66.3,30.28,East,89,0.0,1.0,93,0.00,,,0.00,Wunderground v.1.15,2013-07-14 05:45:00,
2013-07-14 01:51:00,68.3,66.2,30.28,East,89,0.0,1.0,93,0.00,,,0.00,Wunderground v.1.15,2013-07-14 05:51:00,
2013-07-14 01:57:00,68.2,66.1,30.28,East,89,0.0,1.0,93,0.00,,,0.00,Wunderground v.1.15,2013-07-14 05:57:00,
2013-07-14 02:03:00,68.2,66.1,30.28,East,89,0.0,1.0,93,0.00,,,0.00,Wunderground v.1.15,2013-07-14 06:03:00,
2013-07-14 02:08:00,68.1,66.3,30.28,East,89,0.0,1.0,94,0.00,,,0.00,Wunderground v.1.15,2013-07-14 06:08:00,
2013-07-14 02:14:00,67.9,66.1,30.28,East,89,0.0,1.0,94,0.00,,,0.00,Wunderground v.1.15,2013-07-14 06:14:00,
2013-07-14 02:20:00,67.9,66.1,30.28,East,89,0.0,1.0,94,0.00,,,0.00,Wunderground v.1.15,2013-07-14 06:20:00,
2013-07-14 02:26:00,67.9,66.1,30.28,East,89,0.0,1.0,94,0.00,,,0.00,Wunderground v.1.15,2013-07-14 06:26:00,
2013-07-14 02:31:00,67.8,66.0,30.28,East,89,0.0,1.0,94,0.00,,,0.00,Wunderground v.1.15,2013-07-14 06:31:00,
2013-07-14 02:37:00,67.7,65.9,30.28,East,89,0.0,1.0,94,0.00,,,0.00,Wunderground v.1.15,2013-07-14 06:37:00,
2013-07-14 02:43:00,67.7,65.9,30.28,East,89,0.0,1.0,94,0.00,,,0.00,Wunderground v.1.15,2013-07-14 06:43:00,
2013-07-14 02:48:00,67.7,65.9,30.28,East,89,0.0,1.0,94,0.00,,,0.00,Wunderground v.1.15,2013-07-14 06:48:00,
2013-07-14 02:54:00,67.6,65.8,30.28,East,89,0.0,1.0,94,0.00,,,0.00,Wunderground v.1.15,2013-07-14 06:54:00,
2013-07-14 03:00:00,67.6,65.8,30.28,East,89,0.0,1.0,94,0.00,,,0.00,Wunderground v.1.15,2013-07-14 07:00:00,
2013-07-14 03:06:00,67.5,66.0,30.28,East,89,0.0,1.0,95,0.00,,,0.00,Wunderground v.1.15,2013-07-14 07:06:00,
2013-07-14 03:12:00,67.5,66.0,30.28,East,89,0.0,1.0,95,0.00,,,0.00,Wunderground v.1.15,2013-07-14 07:12:00,
2013-07-14 03:17:00,67.5,66.0,30.28,East,89,0.0,1.0,95,0.00,,,0.00,Wunderground v.1.15,2013-07-14 07:17:00,
2013-07-14 03:22:00,67.6,66.1,30.28,East,89,0.0,1.0,95,0.00,,,0.00,Wunderground v.1.15,2013-07-14 07:22:00,
2013-07-14 03:28:00,67.7,66.2,30.28,East,89,0.0,1.0,95,0.00,,,0.00,Wunderground v.1.15,2013-07-14 07:28:00,
2013-07-14 03:34:00,67.8,66.3,30.28,East,89,0.0,1.0,95,0.00,,,0.00,Wunderground v.1.15,2013-07-14 07:34:00,
2013-07-14 03:39:00,67.9,66.4,30.28,East,89,0.0,1.0,95,0.00,,,0.00,Wunderground v.1.15,2013-07-14 07:39:00,
2013-07-14 03:45:00,68.0,66.5,30.28,East,89,0.0,1.0,95,0.00,,,0.00,Wunderground v.1.15,2013-07-14 07:45:00,
2013-07-14 03:51:00,68.0,66.5,30.28,East,89,0.0,1.0,95,0.00,,,0.00,Wunderground v.1.15,2013-07-14 07:51:00,
2013-07-14 03:57:00,68.0,66.2,30.27,East,89,0.0,1.0,94,0.00,,,0.00,Wunderground v.1.15,2013-07-14 07:57:00,
2013-07-14 04:03:00,68.1,66.6,30.27,East,89,0.0,1.0,95,0.00,,,0.00,Wunderground v.1.15,2013-07-14 08:03:00,
2013-07-14 04:09:00,68.1,66.6,30.27,East,89,0.0,1.0,95,0.00,,,0.00,Wunderground v.1.15,2013-07-14 08:09:00,
2013-07-14 04:14:00,68.2,66.7,30.28,East,89,0.0,1.0,95,0.00,,,0.00,Wunderground v.1.15,2013-07-14 08:14:00,
2013-07-14 04:20:00,68.3,66.5,30.28,East,98,0.0,1.0,94,0.00,,,0.00,Wunderground v.1.15,2013-07-14 08:20:00,
2013-07-14 04:26:00,68.3,66.5,30.28,ESE,111,0.0,1.0,94,0.00,,,0.00,Wunderground v.1.15,2013-07-14 08:26:00,
2013-07-14 04:31:00,68.4,66.6,30.28,ESE,105,0.0,1.0,94,0.00,,,0.00,Wunderground v.1.15,2013-07-14 08:31:00,
2013-07-14 04:37:00,68.5,66.7,30.28,ESE,105,0.0,1.0,94,0.00,,,0.00,Wunderground v.1.15,2013-07-14 08:37:00,
2013-07-14 04:43:00,68.5,66.7,30.28,ESE,105,0.0,1.0,94,0.00,,,0.00,Wunderground v.1.15,2013-07-14 08:43:00,
2013-07-14 04:49:00,68.6,66.8,30.28,ESE,109,0.0,1.0,94,0.00,,,0.00,Wunderground v.1.15,2013-07-14 08:49:00,
2013-07-14 04:55:00,68.7,66.9,30.28,SE,132,0.0,1.0,94,0.00,,,0.00,Wunderground v.1.15,2013-07-14 08:55:00,
2013-07-14 05:00:00,68.7,66.9,30.28,SE,136,0.0,1.0,94,0.00,,,0.00,Wunderground v.1.15,2013-07-14 09:00:00,
2013-07-14 05:06:00,68.7,66.9,30.28,SE,138,0.0,1.0,94,0.00,,,0.00,Wunderground v.1.15,2013-07-14 09:06:00,
2013-07-14 05:12:00,68.7,66.9,30.28,ESE,117,0.0,1.0,94,0.00,,,0.00,Wunderground v.1.15,2013-07-14 09:12:00,
2013-07-14 05:19:00,68.7,66.6,30.28,ESE,117,0.0,1.0,93,0.00,,,0.00,Wunderground v.1.15,2013-07-14 09:19:00,
2013-07-14 05:25:00,68.6,66.5,30.28,ESE,117,0.0,1.0,93,0.00,,,0.00,Wunderground v.1.15,2013-07-14 09:25:00,
2013-07-14 05:31:00,68.6,66.5,30.29,ESE,117,0.0,1.0,93,0.00,,,0.00,Wunderground v.1.15,2013-07-14 09:31:00,
2013-07-14 05:36:00,68.5,66.4,30.29,ESE,117,0.0,1.0,93,0.00,,,0.00,Wunderground v.1.15,2013-07-14 09:36:00,
2013-07-14 05:42:00,68.4,66.3,30.29,ESE,117,0.0,1.0,93,0.00,,,0.00,Wunderground v.1.15,2013-07-14 09:42:00,
2013-07-14 05:48:00,68.3,66.2,30.30,ESE,117,0.0,1.0,93,0.00,,,0.00,Wunderground v.1.15,2013-07-14 09:48:00,
2013-07-14 05:54:00,68.2,66.4,30.30,SE,140,0.0,1.0,94,0.00,,,0.00,Wunderground v.1.15,2013-07-14 09:54:00,
2013-07-14 06:00:00,68.2,66.4,30.30,SE,140,0.0,0.0,94,0.00,,,0.00,Wunderground v.1.15,2013-07-14 10:00:00,
2013-07-14 06:06:00,68.1,66.3,30.30,SE,140,0.0,0.0,94,0.00,,,0.00,Wunderground v.1.15,2013-07-14 10:06:00,
2013-07-14 06:11:00,68.0,66.2,30.30,SE,140,0.0,0.0,94,0.00,,,0.00,Wunderground v.1.15,2013-07-14 10:11:00,
2013-07-14 06:17:00,68.1,66.3,30.30,ENE,70,0.0,0.0,94,0.00,,,0.00,Wunderground v.1.15,2013-07-14 10:17:00,
2013-07-14 06:23:00,68.2,66.7,30.31,ENE,71,0.0,0.0,95,0.00,,,0.00,Wunderground v.1.15,2013-07-14 10:23:00,
2013-07-14 06:29:00,68.3,66.8,30.31,ENE,71,0.0,0.0,95,0.00,,,0.00,Wunderground v.1.15,2013-07-14 10:29:00,
2013-07-14 06:35:00,68.5,67.0,30.31,South,175,0.0,0.0,95,0.00,,,0.00,Wunderground v.1.15,2013-07-14 10:35:00,
2013-07-14 06:41:00,68.5,66.7,30.31,South,175,0.0,0.0,94,0.00,,,0.00,Wunderground v.1.15,2013-07-14 10:41:00,
2013-07-14 06:46:00,68.6,66.8,30.31,South,175,0.0,0.0,94,0.00,,,0.00,Wunderground v.1.15,2013-07-14 10:46:00,
2013-07-14 06:52:00,68.6,66.8,30.32,South,175,0.0,0.0,94,0.00,,,0.00,Wunderground v.1.15,2013-07-14 10:52:00,
2013-07-14 06:58:00,68.8,67.0,30.32,South,175,0.0,1.0,94,0.00,,,0.00,Wunderground v.1.15,2013-07-14 10:58:00,
2013-07-14 07:04:00,68.9,67.1,30.32,South,175,0.0,1.0,94,0.00,,,0.00,Wunderground v.1.15,2013-07-14 11:04:00,
2013-07-14 07:09:00,69.0,67.2,30.32,South,175,0.0,1.0,94,0.00,,,0.00,Wunderground v.1.15,2013-07-14 11:09:00,
2013-07-14 07:14:00,69.2,67.4,30.32,South,175,0.0,1.0,94,0.00,,,0.00,Wunderground v.1.15,2013-07-14 11:14:00,
2013-07-14 07:19:00,69.3,67.5,30.32,South,175,0.0,1.0,94,0.00,,,0.00,Wunderground v.1.15,2013-07-14 11:19:00,
2013-07-14 07:25:00,69.6,67.8,30.32,South,175,0.0,1.0,94,0.00,,,0.00,Wunderground v.1.15,2013-07-14 11:25:00,
2013-07-14 07:30:00,69.9,68.1,30.32,South,186,0.0,1.0,94,0.00,,,0.00,Wunderground v.1.15,2013-07-14 11:30:00,
2013-07-14 07:35:00,70.1,68.3,30.32,South,184,0.0,1.0,94,0.00,,,0.00,Wunderground v.1.15,2013-07-14 11:35:00,
2013-07-14 07:41:00,70.4,68.3,30.32,South,185,0.0,1.0,93,0.00,,,0.00,Wunderground v.1.15,2013-07-14 11:41:00,
2013-07-14 07:47:00,70.7,68.6,30.32,South,186,0.0,1.0,93,0.00,,,0.00,Wunderground v.1.15,2013-07-14 11:47:00,
2013-07-14 07:52:00,71.0,68.9,30.32,South,186,0.0,2.0,93,0.00,,,0.00,Wunderground v.1.15,2013-07-14 11:52:00,
2013-07-14 07:58:00,71.4,69.3,30.32,South,186,0.0,2.0,93,0.00,,,0.00,Wunderground v.1.15,2013-07-14 11:58:00,
2013-07-14 08:04:00,71.9,69.4,30.33,ESE,111,0.0,1.0,92,0.00,,,0.00,Wunderground v.1.15,2013-07-14 12:04:00,
2013-07-14 08:10:00,72.4,69.6,30.32,South,181,0.0,1.0,91,0.00,,,0.00,Wunderground v.1.15,2013-07-14 12:10:00,
2013-07-14 08:16:00,73.0,70.2,30.32,SSE,153,0.0,1.0,91,0.00,,,0.00,Wunderground v.1.15,2013-07-14 12:16:00,
2013-07-14 08:21:00,73.6,70.5,30.32,SSW,194,0.0,3.0,90,0.00,,,0.00,Wunderground v.1.15,2013-07-14 12:21:00,
2013-07-14 08:27:00,74.2,70.7,30.32,SSE,150,0.0,3.0,89,0.00,,,0.00,Wunderground v.1.15,2013-07-14 12:27:00,
2013-07-14 08:33:00,74.6,70.8,30.32,East,80,0.0,1.0,88,0.00,,,0.00,Wunderground v.1.15,2013-07-14 12:33:00,
2013-07-14 08:39:00,75.1,71.3,30.32,SSE,155,1.0,2.0,88,0.00,,,0.00,Wunderground v.1.15,2013-07-14 12:39:00,
2013-07-14 08:45:00,75.6,71.5,30.32,South,180,0.0,1.0,87,0.00,,,0.00,Wunderground v.1.15,2013-07-14 12:45:00,
2013-07-14 08:50:00,76.2,71.7,30.32,ENE,64,0.0,2.0,86,0.00,,,0.00,Wunderground v.1.15,2013-07-14 12:50:00,
2013-07-14 08:56:00,76.7,71.8,30.32,SE,129,0.0,2.0,85,0.00,,,0.00,Wunderground v.1.15,2013-07-14 12:56:00,
2013-07-14 09:01:00,76.9,71.7,30.32,South,170,1.0,3.0,84,0.00,,,0.00,Wunderground v.1.15,2013-07-14 13:01:00,
2013-07-14 09:07:00,77.2,71.3,30.32,SE,136,1.0,3.0,82,0.00,,,0.00,Wunderground v.1.15,2013-07-14 13:07:00,
2013-07-14 09:14:00,77.3,71.4,30.32,SE,139,1.0,2.0,82,0.00,,,0.00,Wunderground v.1.15,2013-07-14 13:14:00,
2013-07-14 09:19:00,77.5,71.9,30.32,ENE,71,1.0,3.0,83,0.00,,,0.00,Wunderground v.1.15,2013-07-14 13:19:00,
2013-07-14 09:25:00,77.8,71.9,30.32,SSW,197,1.0,3.0,82,0.00,,,0.00,Wunderground v.1.15,2013-07-14 13:25:00,
2013-07-14 09:31:00,78.1,72.2,30.32,South,178,1.0,1.0,82,0.00,,,0.00,Wunderground v.1.15,2013-07-14 13:31:00,
2013-07-14 09:37:00,78.3,72.0,30.32,South,175,1.0,4.0,81,0.00,,,0.00,Wunderground v.1.15,2013-07-14 13:37:00,
2013-07-14 09:43:00,78.3,71.6,30.32,South,172,2.0,4.0,80,0.00,,,0.00,Wunderground v.1.15,2013-07-14 13:43:00,
2013-07-14 09:49:00,78.4,71.3,30.32,South,173,2.0,2.0,79,0.00,,,0.00,Wunderground v.1.15,2013-07-14 13:49:00,
2013-07-14 09:55:00,78.4,71.3,30.32,SSE,168,3.0,5.0,79,0.00,,,0.00,Wunderground v.1.15,2013-07-14 13:55:00,
2013-07-14 10:01:00,78.6,71.9,30.32,South,187,3.0,3.0,80,0.00,,,0.00,Wunderground v.1.15,2013-07-14 14:01:00,
2013-07-14 10:07:00,78.9,72.2,30.32,South,179,2.0,5.0,80,0.00,,,0.00,Wunderground v.1.15,2013-07-14 14:07:00,
2013-07-14 10:13:00,79.3,72.6,30.32,South,179,1.0,3.0,80,0.00,,,0.00,Wunderground v.1.15,2013-07-14 14:13:00,
2013-07-14 10:19:00,79.6,73.3,30.32,SSW,201,0.0,3.0,81,0.00,,,0.00,Wunderground v.1.15,2013-07-14 14:19:00,
2013-07-14 10:25:00,79.9,72.8,30.32,South,181,1.0,4.0,79,0.00,,,0.00,Wunderground v.1.15,2013-07-14 14:25:00,
2013-07-14 10:30:00,79.9,72.4,30.31,ENE,62,2.0,3.0,78,0.00,,,0.00,Wunderground v.1.15,2013-07-14 14:30:00,
2013-07-14 10:36:00,80.3,73.2,30.31,South,188,1.0,3.0,79,0.00,,,0.00,Wunderground v.1.15,2013-07-14 14:36:00,
2013-07-14 10:42:00,80.7,73.6,30.31,SW,215,0.0,3.0,79,0.00,,,0.00,Wunderground v.1.15,2013-07-14 14:42:00,
2013-07-14 10:48:00,81.1,72.8,30.31,South,188,0.0,6.0,76,0.00,,,0.00,Wunderground v.1.15,2013-07-14 14:48:00,
2013-07-14 10:54:00,81.3,73.0,30.31,South,169,1.0,3.0,76,0.00,,,0.00,Wunderground v.1.15,2013-07-14 14:54:00,
2013-07-14 11:00:00,81.4,73.1,30.31,SSW,196,1.0,3.0,76,0.00,,,0.00,Wunderground v.1.15,2013-07-14 15:00:00,
2013-07-14 11:06:00,81.6,73.3,30.31,South,183,1.0,3.0,76,0.00,,,0.00,Wunderground v.1.15,2013-07-14 15:06:00,
2013-07-14 11:11:00,81.9,74.4,30.31,South,183,1.0,3.0,78,0.00,,,0.00,Wunderground v.1.15,2013-07-14 15:11:00,
2013-07-14 11:17:00,82.4,74.1,30.31,SSE,153,0.0,3.0,76,0.00,,,0.00,Wunderground v.1.15,2013-07-14 15:17:00,
2013-07-14 11:22:00,82.6,73.5,30.31,SSW,207,1.0,6.0,74,0.00,,,0.00,Wunderground v.1.15,2013-07-14 15:22:00,
2013-07-14 11:28:00,82.8,74.1,30.31,South,178,2.0,6.0,75,0.00,,,0.00,Wunderground v.1.15,2013-07-14 15:28:00,
2013-07-14 11:33:00,82.9,73.4,30.31,South,184,2.0,4.0,73,0.00,,,0.00,Wunderground v.1.15,2013-07-14 15:33:00,
2013-07-14 11:39:00,82.7,72.7,30.31,SSW,192,2.0,3.0,72,0.00,,,0.00,Wunderground v.1.15,2013-07-14 15:39:00,
2013-07-14 11:45:00,82.8,72.8,30.31,SSW,192,1.0,3.0,72,0.00,,,0.00,Wunderground v.1.15,2013-07-14 15:45:00,
2013-07-14 11:51:00,82.8,73.3,30.31,South,175,1.0,5.0,73,0.00,,,0.00,Wunderground v.1.15,2013-07-14 15:51:00,
2013-07-14 11:57:00,82.5,72.6,30.31,South,178,2.0,5.0,72,0.00,,,0.00,Wunderground v.1.15,2013-07-14 15:57:00,
2013-07-14 12:02:00,82.3,72.8,30.31,South,175,1.0,1.0,73,0.00,,,0.00,Wunderground v.1.15,2013-07-14 16:02:00,
2013-07-14 12:07:00,82.1,72.2,30.31,South,189,1.0,3.0,72,0.00,,,0.00,Wunderground v.1.15,2013-07-14 16:07:00,
2013-07-14 12:12:00,82.0,72.5,30.31,South,182,2.0,3.0,73,0.00,,,0.00,Wunderground v.1.15,2013-07-14 16:12:00,
2013-07-14 12:17:00,82.5,73.8,30.31,SSW,199,2.0,3.0,75,0.00,,,0.00,Wunderground v.1.15,2013-07-14 16:17:00,
2013-07-14 12:22:00,82.9,73.4,30.31,SSW,193,3.0,6.0,73,0.00,,,0.00,Wunderground v.1.15,2013-07-14 16:22:00,
2013-07-14 12:27:00,83.2,74.4,30.31,South,180,4.0,6.0,75,0.00,,,0.00,Wunderground v.1.15,2013-07-14 16:27:00,
2013-07-14 12:33:00,83.3,72.9,30.31,South,174,1.0,3.0,71,0.00,,,0.00,Wunderground v.1.15,2013-07-14 16:33:00,
2013-07-14 12:38:00,83.0,73.9,30.32,South,174,1.0,3.0,74,0.00,,,0.00,Wunderground v.1.15,2013-07-14 16:38:00,
2013-07-14 12:44:00,83.1,73.5,30.31,East,80,1.0,1.0,73,0.00,,,0.00,Wunderground v.1.15,2013-07-14 16:44:00,
2013-07-14 12:49:00,83.4,73.0,30.31,South,186,1.0,1.0,71,0.00,,,0.00,Wunderground v.1.15,2013-07-14 16:49:00,
2013-07-14 12:55:00,83.5,72.7,30.31,South,186,3.0,5.0,70,0.00,,,0.00,Wunderground v.1.15,2013-07-14 16:55:00,
2013-07-14 13:02:00,83.5,73.1,30.31,South,186,1.0,10.0,71,0.00,,,0.00,Wunderground v.1.15,2013-07-14 17:02:00,
2013-07-14 13:08:00,83.4,73.4,30.31,SW,225,1.0,10.0,72,0.00,,,0.00,Wunderground v.1.15,2013-07-14 17:08:00,
2013-07-14 13:14:00,83.2,73.6,30.31,SSW,197,2.0,10.0,73,0.00,,,0.00,Wunderground v.1.15,2013-07-14 17:14:00,
2013-07-14 13:20:00,83.0,74.6,30.31,SSW,196,1.0,10.0,76,0.00,,,0.00,Wunderground v.1.15,2013-07-14 17:20:00,
2013-07-14 13:26:00,83.4,74.2,30.31,SSW,198,1.0,10.0,74,0.00,,,0.00,Wunderground v.1.15,2013-07-14 17:26:00,
2013-07-14 13:31:00,84.0,73.2,30.31,SE,146,1.0,10.0,70,0.00,,,0.00,Wunderground v.1.15,2013-07-14 17:31:00,
2013-07-14 13:37:00,84.5,73.6,30.31,SSE,150,0.0,10.0,70,0.00,,,0.00,Wunderground v.1.15,2013-07-14 17:37:00,
2013-07-14 13:43:00,84.7,73.8,30.31,SSE,150,0.0,10.0,70,0.00,,,0.00,Wunderground v.1.15,2013-07-14 17:43:00,
2013-07-14 13:48:00,84.9,74.4,30.31,SSE,150,0.0,10.0,71,0.00,,,0.00,Wunderground v.1.15,2013-07-14 17:48:00,
2013-07-14 13:53:00,85.1,74.6,30.31,SSE,148,1.0,10.0,71,0.00,,,0.00,Wunderground v.1.15,2013-07-14 17:53:00,
2013-07-14 13:59:00,85.3,74.4,30.31,South,169,1.0,10.0,70,0.00,,,0.00,Wunderground v.1.15,2013-07-14 17:59:00,
2013-07-14 14:04:00,85.6,74.3,30.31,SW,223,1.0,10.0,69,0.00,,,0.00,Wunderground v.1.15,2013-07-14 18:04:00,
2013-07-14 14:09:00,85.9,74.5,30.31,SE,136,1.0,1.0,69,0.00,,,0.00,Wunderground v.1.15,2013-07-14 18:09:00,
2013-07-14 14:14:00,86.0,73.3,30.31,ENE,76,1.0,10.0,66,0.00,,,0.00,Wunderground v.1.15,2013-07-14 18:14:00,
2013-07-14 14:20:00,85.9,72.8,30.31,NE,52,1.0,10.0,65,0.00,,,0.00,Wunderground v.1.15,2013-07-14 18:20:00,
2013-07-14 14:25:00,85.7,74.8,30.31,SSW,212,1.0,10.0,70,0.00,,,0.00,Wunderground v.1.15,2013-07-14 18:25:00,
2013-07-14 14:30:00,85.2,73.4,30.31,South,188,1.0,10.0,68,0.00,,,0.00,Wunderground v.1.15,2013-07-14 18:30:00,
2013-07-14 14:35:00,84.7,73.8,30.31,South,190,2.0,10.0,70,0.00,,,0.00,Wunderground v.1.15,2013-07-14 18:35:00,
2013-07-14 14:40:00,84.4,74.4,30.30,SW,215,3.0,10.0,72,0.00,,,0.00,Wunderground v.1.15,2013-07-14 18:40:00,
2013-07-14 14:45:00,84.8,73.9,30.30,WSW,254,2.0,10.0,70,0.00,,,0.00,Wunderground v.1.15,2013-07-14 18:45:00,
2013-07-14 14:50:00,85.2,74.7,30.30,WSW,254,1.0,10.0,71,0.00,,,0.00,Wunderground v.1.15,2013-07-14 18:50:00,
2013-07-14 14:55:00,85.6,75.1,30.30,SSE,153,0.0,10.0,71,0.00,,,0.00,Wunderground v.1.15,2013-07-14 18:55:00,
2013-07-14 15:01:00,85.4,72.7,30.30,South,182,1.0,1.0,66,0.00,,,0.00,Wunderground v.1.15,2013-07-14 19:01:00,
2013-07-14 15:07:00,85.3,73.1,30.30,South,184,1.0,3.0,67,0.00,,,0.00,Wunderground v.1.15,2013-07-14 19:07:00,
2013-07-14 15:12:00,85.2,74.7,30.30,SE,138,1.0,1.0,71,0.00,,,0.00,Wunderground v.1.15,2013-07-14 19:12:00,
2013-07-14 15:18:00,85.1,72.5,30.30,South,178,1.0,4.0,66,0.00,,,0.00,Wunderground v.1.15,2013-07-14 19:18:00,
2013-07-14 15:24:00,84.8,72.6,30.30,SSW,196,3.0,5.0,67,0.00,,,0.00,Wunderground v.1.15,2013-07-14 19:24:00,
2013-07-14 15:30:00,84.5,72.8,30.30,SSW,210,3.0,3.0,68,0.00,,,0.00,Wunderground v.1.15,2013-07-14 19:30:00,
2013-07-14 15:36:00,84.6,74.2,30.29,West,265,2.0,3.0,71,0.00,,,0.00,Wunderground v.1.15,2013-07-14 19:36:00,
2013-07-14 15:42:00,84.9,73.6,30.29,SW,231,1.0,2.0,69,0.00,,,0.00,Wunderground v.1.15,2013-07-14 19:42:00,
2013-07-14 15:47:00,85.2,75.6,30.30,West,263,0.0,2.0,73,0.00,,,0.00,Wunderground v.1.15,2013-07-14 19:47:00,
2013-07-14 15:53:00,85.4,75.8,30.30,NE,38,0.0,3.0,73,0.00,,,0.00,Wunderground v.1.15,2013-07-14 19:53:00,
2013-07-14 15:59:00,85.4,76.6,30.29,NNW,341,2.0,2.0,75,0.00,,,0.00,Wunderground v.1.15,2013-07-14 19:59:00,
2013-07-14 16:05:00,85.1,75.5,30.30,ENE,64,2.0,7.0,73,0.00,,,0.00,Wunderground v.1.15,2013-07-14 20:05:00,
2013-07-14 16:11:00,84.5,75.3,30.30,NNE,28,1.0,7.0,74,0.00,,,0.00,Wunderground v.1.15,2013-07-14 20:11:00,
2013-07-14 16:17:00,84.4,76.4,30.29,ENE,78,1.0,7.0,77,0.00,,,0.00,Wunderground v.1.15,2013-07-14 20:17:00,
2013-07-14 16:23:00,84.5,75.3,30.29,North,355,2.0,7.0,74,0.00,,,0.00,Wunderground v.1.15,2013-07-14 20:23:00,
2013-07-14 16:29:00,84.3,75.5,30.30,NNW,342,2.0,2.0,75,0.00,,,0.00,Wunderground v.1.15,2013-07-14 20:29:00,
2013-07-14 16:35:00,84.1,75.7,30.29,NNE,13,1.0,7.0,76,0.00,,,0.00,Wunderground v.1.15,2013-07-14 20:35:00,
2013-07-14 16:41:00,84.5,75.7,30.29,NNW,337,1.0,7.0,75,0.00,,,0.00,Wunderground v.1.15,2013-07-14 20:41:00,
2013-07-14 16:46:00,84.9,75.7,30.29,NE,51,2.0,7.0,74,0.00,,,0.00,Wunderground v.1.15,2013-07-14 20:46:00,
2013-07-14 16:52:00,85.0,75.4,30.29,NE,54,2.0,7.0,73,0.00,,,0.00,Wunderground v.1.15,2013-07-14 20:52:00,
2013-07-14 16:58:00,84.7,75.9,30.29,NE,44,1.0,7.0,75,0.00,,,0.00,Wunderground v.1.15,2013-07-14 20:58:00,
2013-07-14 17:03:00,84.5,75.7,30.29,NE,44,1.0,7.0,75,0.00,,,0.00,Wunderground v.1.15,2013-07-14 21:03:00,
2013-07-14 17:09:00,84.7,75.5,30.30,ENE,71,1.0,1.0,74,0.00,,,0.00,Wunderground v.1.15,2013-07-14 21:09:00,
2013-07-14 17:15:00,85.0,75.4,30.30,North,360,2.0,7.0,73,0.00,,,0.00,Wunderground v.1.15,2013-07-14 21:15:00,
2013-07-14 17:20:00,85.3,75.7,30.30,NNW,338,2.0,7.0,73,0.00,,,0.00,Wunderground v.1.15,2013-07-14 21:20:00,
2013-07-14 17:26:00,85.6,76.8,30.30,North,11,2.0,7.0,75,0.00,,,0.00,Wunderground v.1.15,2013-07-14 21:26:00,
2013-07-14 17:32:00,85.6,76.4,30.30,North,355,1.0,7.0,74,0.00,,,0.00,Wunderground v.1.15,2013-07-14 21:32:00,
2013-07-14 17:37:00,85.5,75.9,30.30,NE,39,1.0,7.0,73,0.00,,,0.00,Wunderground v.1.15,2013-07-14 21:37:00,
2013-07-14 17:42:00,85.5,76.3,30.30,NW,319,1.0,7.0,74,0.00,,,0.00,Wunderground v.1.15,2013-07-14 21:42:00,
2013-07-14 17:47:00,85.3,76.1,30.30,ENE,59,1.0,7.0,74,0.00,,,0.00,Wunderground v.1.15,2013-07-14 21:47:00,
2013-07-14 17:52:00,85.0,75.8,30.30,NNE,28,1.0,7.0,74,0.00,,,0.00,Wunderground v.1.15,2013-07-14 21:52:00,
2013-07-14 17:57:00,84.6,75.4,30.30,East,84,1.0,7.0,74,0.00,,,0.00,Wunderground v.1.15,2013-07-14 21:57:00,
2013-07-14 18:02:00,84.5,76.1,30.30,NE,42,1.0,1.0,76,0.00,,,0.00,Wunderground v.1.15,2013-07-14 22:02:00,
2013-07-14 18:08:00,84.7,75.9,30.30,NE,38,1.0,3.0,75,0.00,,,0.00,Wunderground v.1.15,2013-07-14 22:08:00,
2013-07-14 18:14:00,84.6,75.4,30.29,NE,45,1.0,2.0,74,0.00,,,0.00,Wunderground v.1.15,2013-07-14 22:14:00,
2013-07-14 18:20:00,84.5,75.3,30.29,NNE,22,1.0,1.0,74,0.00,,,0.00,Wunderground v.1.15,2013-07-14 22:20:00,
2013-07-14 18:25:00,84.2,75.4,30.29,North,5,1.0,5.0,75,0.00,,,0.00,Wunderground v.1.15,2013-07-14 22:25:00,
2013-07-14 18:30:00,83.9,75.1,30.30,ENE,74,1.0,1.0,75,0.00,,,0.00,Wunderground v.1.15,2013-07-14 22:30:00,
2013-07-14 18:36:00,83.6,75.2,30.29,ENE,74,0.0,1.0,76,0.00,,,0.00,Wunderground v.1.15,2013-07-14 22:36:00,
2013-07-14 18:42:00,83.4,75.0,30.29,ENE,67,1.0,1.0,76,0.00,,,0.00,Wunderground v.1.15,2013-07-14 22:42:00,
2013-07-14 18:48:00,83.2,75.2,30.29,ENE,61,1.0,1.0,77,0.00,,,0.00,Wunderground v.1.15,2013-07-14 22:48:00,
2013-07-14 18:53:00,82.9,74.9,30.29,ENE,65,1.0,3.0,77,0.00,,,0.00,Wunderground v.1.15,2013-07-14 22:53:00,
2013-07-14 18:59:00,82.7,75.1,30.30,ENE,65,1.0,1.0,78,0.00,,,0.00,Wunderground v.1.15,2013-07-14 22:59:00,
2013-07-14 19:05:00,82.5,75.3,30.30,ENE,65,0.0,7.0,79,0.00,,,0.00,Wunderground v.1.15,2013-07-14 23:05:00,
2013-07-14 19:11:00,82.4,75.2,30.30,ENE,65,0.0,7.0,79,0.00,,,0.00,Wunderground v.1.15,2013-07-14 23:11:00,
2013-07-14 19:17:00,82.3,75.5,30.29,ENE,65,0.0,7.0,80,0.00,,,0.00,Wunderground v.1.15,2013-07-14 23:17:00,
2013-07-14 19:22:00,82.3,75.5,30.29,ENE,63,0.0,7.0,80,0.00,,,0.00,Wunderground v.1.15,2013-07-14 23:22:00,
2013-07-14 19:28:00,82.2,75.4,30.29,ENE,63,0.0,7.0,80,0.00,,,0.00,Wunderground v.1.15,2013-07-14 23:28:00,
2013-07-14 19:34:00,82.1,75.7,30.29,ENE,63,0.0,7.0,81,0.00,,,0.00,Wunderground v.1.15,2013-07-14 23:34:00,
2013-07-14 19:40:00,82.0,75.6,30.29,ENE,63,0.0,7.0,81,0.00,,,0.00,Wunderground v.1.15,2013-07-14 23:40:00,
2013-07-14 19:46:00,81.8,75.4,30.29,ENE,63,0.0,7.0,81,0.00,,,0.00,Wunderground v.1.15,2013-07-14 23:46:00,
2013-07-14 19:51:00,81.7,75.7,30.29,ENE,63,0.0,7.0,82,0.00,,,0.00,Wunderground v.1.15,2013-07-14 23:51:00,
2013-07-14 19:57:00,81.7,75.7,30.29,ENE,63,0.0,7.0,82,0.00,,,0.00,Wunderground v.1.15,2013-07-14 23:57:00,
2013-07-14 20:03:00,81.6,75.9,30.29,ENE,63,0.0,7.0,83,0.00,,,0.00,Wunderground v.1.15,2013-07-15 00:03:00,
2013-07-14 20:09:00,81.4,75.7,30.29,ENE,63,0.0,7.0,83,0.00,,,0.00,Wunderground v.1.15,2013-07-15 00:09:00,
2013-07-14 20:14:00,81.3,76.0,30.29,ENE,63,0.0,7.0,84,0.00,,,0.00,Wunderground v.1.15,2013-07-15 00:14:00,
2013-07-14 20:20:00,81.1,75.8,30.29,ENE,63,0.0,7.0,84,0.00,,,0.00,Wunderground v.1.15,2013-07-15 00:20:00,
2013-07-14 20:26:00,80.9,75.6,30.29,ENE,63,0.0,7.0,84,0.00,,,0.00,Wunderground v.1.15,2013-07-15 00:26:00,
2013-07-14 20:32:00,80.9,76.0,30.29,ENE,63,1.0,7.0,85,0.00,,,0.00,Wunderground v.1.15,2013-07-15 00:32:00,
2013-07-14 20:37:00,80.7,75.8,30.29,ENE,61,0.0,7.0,85,0.00,,,0.00,Wunderground v.1.15,2013-07-15 00:37:00,
2013-07-14 20:43:00,80.6,75.7,30.29,ENE,61,0.0,7.0,85,0.00,,,0.00,Wunderground v.1.15,2013-07-15 00:43:00,
2013-07-14 20:49:00,80.5,75.6,30.29,ENE,61,0.0,7.0,85,0.00,,,0.00,Wunderground v.1.15,2013-07-15 00:49:00,
2013-07-14 20:55:00,80.3,75.4,30.30,ENE,61,0.0,7.0,85,0.00,,,0.00,Wunderground v.1.15,2013-07-15 00:55:00,
2013-07-14 21:01:00,80.1,75.2,30.30,ENE,61,0.0,0.0,85,0.00,,,0.00,Wunderground v.1.15,2013-07-15 01:01:00,
2013-07-14 21:07:00,79.8,74.9,30.30,ENE,61,0.0,0.0,85,0.00,,,0.00,Wunderground v.1.15,2013-07-15 01:07:00,
2013-07-14 21:12:00,79.6,75.0,30.30,ENE,61,0.0,0.0,86,0.00,,,0.00,Wunderground v.1.15,2013-07-15 01:12:00,
2013-07-14 21:18:00,79.4,74.8,30.30,ENE,61,0.0,0.0,86,0.00,,,0.00,Wunderground v.1.15,2013-07-15 01:18:00,
2013-07-14 21:24:00,79.2,75.0,30.30,ENE,61,0.0,0.0,87,0.00,,,0.00,Wunderground v.1.15,2013-07-15 01:24:00,
2013-07-14 21:30:00,78.9,74.7,30.30,ENE,61,0.0,0.0,87,0.00,,,0.00,Wunderground v.1.15,2013-07-15 01:30:00,
2013-07-14 21:36:00,78.6,74.7,30.30,ENE,61,0.0,0.0,88,0.00,,,0.00,Wunderground v.1.15,2013-07-15 01:36:00,
2013-07-14 21:41:00,78.3,74.8,30.30,ENE,61,0.0,0.0,89,0.00,,,0.00,Wunderground v.1.15,2013-07-15 01:41:00,
2013-07-14 21:47:00,78.0,74.5,30.30,ENE,61,0.0,0.0,89,0.00,,,0.00,Wunderground v.1.15,2013-07-15 01:47:00,
2013-07-14 21:53:00,77.6,74.1,30.31,ENE,61,0.0,0.0,89,0.00,,,0.00,Wunderground v.1.15,2013-07-15 01:53:00,
2013-07-14 21:59:00,77.4,74.2,30.31,ENE,61,0.0,0.0,90,0.00,,,0.00,Wunderground v.1.15,2013-07-15 01:59:00,
2013-07-14 22:05:00,77.1,73.9,30.31,ENE,61,0.0,2.0,90,0.00,,,0.00,Wunderground v.1.15,2013-07-15 02:05:00,
2013-07-14 22:11:00,76.9,73.7,30.31,ENE,61,0.0,2.0,90,0.00,,,0.00,Wunderground v.1.15,2013-07-15 02:11:00,
2013-07-14 22:16:00,76.7,73.5,30.31,ENE,61,0.0,2.0,90,0.00,,,0.00,Wunderground v.1.15,2013-07-15 02:16:00,
2013-07-14 22:21:00,76.5,73.7,30.31,ENE,61,0.0,2.0,91,0.00,,,0.00,Wunderground v.1.15,2013-07-15 02:21:00,
2013-07-14 22:26:00,76.2,73.4,30.31,ENE,61,0.0,2.0,91,0.00,,,0.00,Wunderground v.1.15,2013-07-15 02:26:00,
2013-07-14 22:31:00,76.1,73.3,30.31,ENE,61,0.0,2.0,91,0.00,,,0.00,Wunderground v.1.15,2013-07-15 02:31:00,
2013-07-14 22:36:00,75.9,73.1,30.31,ENE,61,0.0,2.0,91,0.00,,,0.00,Wunderground v.1.15,2013-07-15 02:36:00,
2013-07-14 22:41:00,75.7,72.9,30.31,ENE,61,0.0,2.0,91,0.00,,,0.00,Wunderground v.1.15,2013-07-15 02:41:00,
2013-07-14 22:47:00,75.5,73.0,30.31,ENE,61,0.0,2.0,92,0.00,,,0.00,Wunderground v.1.15,2013-07-15 02:47:00,
2013-07-14 22:52:00,75.3,72.8,30.31,ENE,61,0.0,2.0,92,0.00,,,0.00,Wunderground v.1.15,2013-07-15 02:52:00,
2013-07-14 22:58:00,75.2,72.7,30.31,ENE,61,0.0,2.0,92,0.00,,,0.00,Wunderground v.1.15,2013-07-15 02:58:00,
2013-07-14 23:04:00,75.0,72.5,30.31,ENE,61,0.0,2.0,92,0.00,,,0.00,Wunderground v.1.15,2013-07-15 03:04:00,
2013-07-14 23:10:00,74.9,72.4,30.31,ENE,61,0.0,2.0,92,0.00,,,0.00,Wunderground v.1.15,2013-07-15 03:10:00,
2013-07-14 23:15:00,74.8,72.3,30.31,ENE,61,0.0,2.0,92,0.00,,,0.00,Wunderground v.1.15,2013-07-15 03:15:00,
2013-07-14 23:21:00,74.7,72.2,30.31,ENE,61,0.0,2.0,92,0.00,,,0.00,Wunderground v.1.15,2013-07-15 03:21:00,
2013-07-14 23:27:00,74.6,72.1,30.31,ENE,61,0.0,2.0,92,0.00,,,0.00,Wunderground v.1.15,2013-07-15 03:27:00,
2013-07-14 23:33:00,74.6,72.4,30.31,ENE,61,0.0,2.0,93,0.00,,,0.00,Wunderground v.1.15,2013-07-15 03:33:00,
2013-07-14 23:39:00,74.4,72.2,30.32,ENE,61,0.0,2.0,93,0.00,,,0.00,Wunderground v.1.15,2013-07-15 03:39:00,
2013-07-14 23:44:00,74.2,72.0,30.32,ENE,61,0.0,2.0,93,0.00,,,0.00,Wunderground v.1.15,2013-07-15 03:44:00,
2013-07-14 23:50:00,74.1,71.9,30.31,ENE,61,0.0,2.0,93,0.00,,,0.00,Wunderground v.1.15,2013-07-15 03:50:00,
2013-07-14 23:57:00,73.9,71.7,30.31,ENE,61,0.0,2.0,93,0.00,,,0.00,Wunderground v.1.15,2013-07-15 03:57:00,